Niedercorn, Luxembourg
Current Conditions -  °F | °C
As of 5:20 PM on Thursday 30 Oct 2014 (Local Time) from ELLX Reporting Station
Clear Clear  
Wind Chill: 55°   Ceiling: Unl
Heat Index: 55°   Visibility: 3mi
Dew Point: 54°   Wind: 2mph
Humidity: 94%   Direction: NA
Pressure: 30.24"   Gusts: NA
Location:  49.54°N, 5.89°E
Report Text: ELLX 301620Z VRB02KT 5000 NSC 13/12 Q1024 NOSIG
Loading
Personal Weather Stations






























Interactive Weather Map
Tropical Storm Tracking
New forecast layout! Learn more

10-Day Weather Forecast

Advertisements
Track Severe Weather on mobile